sensor_id;sensor_type;location;lat;lon;timestamp;P1;durP1;ratioP1;P2;durP2;ratioP2
13475;SDS011;6810;63.824;20.288;2023-05-29T00:00:45;0.10;;;0.10;;
13475;SDS011;6810;63.824;20.288;2023-05-29T00:03:33;0.73;;;0.10;;
13475;SDS011;6810;63.824;20.288;2023-05-29T00:06:20;0.83;;;0.10;;
13475;SDS011;6810;63.824;20.288;2023-05-29T00:09:08;0.10;;;0.00;;
13475;SDS011;6810;63.824;20.288;2023-05-29T00:11:55;0.10;;;0.00;;
13475;SDS011;6810;63.824;20.288;2023-05-29T00:14:42;0.00;;;0.00;;
13475;SDS011;6810;63.824;20.288;2023-05-29T00:17:29;0.10;;;0.10;;
13475;SDS011;6810;63.824;20.288;2023-05-29T00:20:20;0.83;;;0.10;;
13475;SDS011;6810;63.824;20.288;2023-05-29T00:23:07;0.20;;;0.10;;
13475;SDS011;6810;63.824;20.288;2023-05-29T00:25:54;0.80;;;0.10;;
13475;SDS011;6810;63.824;20.288;2023-05-29T00:28:42;0.30;;;0.10;;
13475;SDS011;6810;63.824;20.288;2023-05-29T00:31:29;2.47;;;0.10;;
13475;SDS011;6810;63.824;20.288;2023-05-29T00:34:17;0.00;;;0.00;;
13475;SDS011;6810;63.824;20.288;2023-05-29T00:37:04;0.20;;;0.10;;
13475;SDS011;6810;63.824;20.288;2023-05-29T00:39:51;0.20;;;0.13;;
13475;SDS011;6810;63.824;20.288;2023-05-29T00:42:38;0.93;;;0.30;;
13475;SDS011;6810;63.824;20.288;2023-05-29T00:45:26;0.37;;;0.00;;
13475;SDS011;6810;63.824;20.288;2023-05-29T00:48:13;0.20;;;0.10;;
13475;SDS011;6810;63.824;20.288;2023-05-29T00:51:00;0.10;;;0.00;;
13475;SDS011;6810;63.824;20.288;2023-05-29T00:53:48;0.40;;;0.03;;
13475;SDS011;6810;63.824;20.288;2023-05-29T00:56:38;0.70;;;0.10;;
13475;SDS011;6810;63.824;20.288;2023-05-29T00:59:26;0.30;;;0.10;;
13475;SDS011;6810;63.824;20.288;2023-05-29T01:02:15;0.63;;;0.20;;
13475;SDS011;6810;63.824;20.288;2023-05-29T01:05:03;0.60;;;0.10;;
13475;SDS011;6810;63.824;20.288;2023-05-29T01:07:51;0.93;;;0.10;;
13475;SDS011;6810;63.824;20.288;2023-05-29T01:10:38;0.10;;;0.10;;
13475;SDS011;6810;63.824;20.288;2023-05-29T01:13:26;0.60;;;0.13;;
13475;SDS011;6810;63.824;20.288;2023-05-29T01:28:48;0.17;;;0.10;;
13475;SDS011;6810;63.824;20.288;2023-05-29T01:31:38;2.00;;;0.20;;
13475;SDS011;6810;63.824;20.288;2023-05-29T01:34:26;1.47;;;0.10;;
13475;SDS011;6810;63.824;20.288;2023-05-29T01:37:14;1.17;;;0.27;;
13475;SDS011;6810;63.824;20.288;2023-05-29T01:40:01;0.83;;;0.20;;
13475;SDS011;6810;63.824;20.288;2023-05-29T01:42:51;0.30;;;0.27;;
13475;SDS011;6810;63.824;20.288;2023-05-29T01:45:39;1.20;;;0.30;;
13475;SDS011;6810;63.824;20.288;2023-05-29T01:48:26;0.10;;;0.10;;
13475;SDS011;6810;63.824;20.288;2023-05-29T01:51:14;0.53;;;0.10;;
13475;SDS011;6810;63.824;20.288;2023-05-29T01:54:02;0.53;;;0.20;;
13475;SDS011;6810;63.824;20.288;2023-05-29T01:56:49;1.40;;;0.10;;
13475;SDS011;6810;63.824;20.288;2023-05-29T01:59:38;0.77;;;0.20;;
13475;SDS011;6810;63.824;20.288;2023-05-29T02:02:25;2.03;;;0.20;;
13475;SDS011;6810;63.824;20.288;2023-05-29T02:05:13;4.23;;;0.30;;
13475;SDS011;6810;63.824;20.288;2023-05-29T02:08:00;0.23;;;0.10;;
13475;SDS011;6810;63.824;20.288;2023-05-29T02:10:48;2.17;;;0.27;;
13475;SDS011;6810;63.824;20.288;2023-05-29T02:13:35;0.47;;;0.10;;
13475;SDS011;6810;63.824;20.288;2023-05-29T02:16:22;1.20;;;0.20;;
13475;SDS011;6810;63.824;20.288;2023-05-29T02:19:09;1.33;;;0.10;;
13475;SDS011;6810;63.824;20.288;2023-05-29T02:22:19;0.33;;;0.20;;
13475;SDS011;6810;63.824;20.288;2023-05-29T02:25:06;0.37;;;0.10;;
13475;SDS011;6810;63.824;20.288;2023-05-29T02:27:53;0.67;;;0.10;;
13475;SDS011;6810;63.824;20.288;2023-05-29T02:30:40;0.13;;;0.10;;
13475;SDS011;6810;63.824;20.288;2023-05-29T02:33:28;1.50;;;0.30;;
13475;SDS011;6810;63.824;20.288;2023-05-29T02:36:15;0.93;;;0.43;;
13475;SDS011;6810;63.824;20.288;2023-05-29T02:39:02;1.13;;;0.20;;
13475;SDS011;6810;63.824;20.288;2023-05-29T02:41:50;1.03;;;0.20;;
13475;SDS011;6810;63.824;20.288;2023-05-29T02:44:37;0.27;;;0.20;;
13475;SDS011;6810;63.824;20.288;2023-05-29T02:47:24;0.93;;;0.30;;
13475;SDS011;6810;63.824;20.288;2023-05-29T02:50:12;1.53;;;0.50;;
13475;SDS011;6810;63.824;20.288;2023-05-29T02:52:59;1.03;;;0.30;;
13475;SDS011;6810;63.824;20.288;2023-05-29T02:55:47;1.10;;;0.30;;
13475;SDS011;6810;63.824;20.288;2023-05-29T02:58:35;0.40;;;0.30;;
13475;SDS011;6810;63.824;20.288;2023-05-29T03:01:22;0.30;;;0.30;;
13475;SDS011;6810;63.824;20.288;2023-05-29T03:04:10;1.07;;;0.30;;
13475;SDS011;6810;63.824;20.288;2023-05-29T03:06:57;2.53;;;0.50;;
13475;SDS011;6810;63.824;20.288;2023-05-29T03:09:44;2.27;;;0.30;;
13475;SDS011;6810;63.824;20.288;2023-05-29T03:12:31;1.60;;;0.37;;
13475;SDS011;6810;63.824;20.288;2023-05-29T03:15:19;5.37;;;0.50;;
13475;SDS011;6810;63.824;20.288;2023-05-29T03:18:06;0.53;;;0.20;;
13475;SDS011;6810;63.824;20.288;2023-05-29T03:20:53;0.90;;;0.30;;
13475;SDS011;6810;63.824;20.288;2023-05-29T03:23:40;2.03;;;0.50;;
13475;SDS011;6810;63.824;20.288;2023-05-29T03:26:28;0.87;;;0.40;;
13475;SDS011;6810;63.824;20.288;2023-05-29T03:29:16;1.70;;;0.50;;
13475;SDS011;6810;63.824;20.288;2023-05-29T03:32:05;1.40;;;0.40;;
13475;SDS011;6810;63.824;20.288;2023-05-29T03:34:52;0.87;;;0.30;;
13475;SDS011;6810;63.824;20.288;2023-05-29T03:37:42;1.33;;;0.50;;
13475;SDS011;6810;63.824;20.288;2023-05-29T03:40:29;1.23;;;0.30;;
13475;SDS011;6810;63.824;20.288;2023-05-29T03:43:16;1.27;;;0.40;;
13475;SDS011;6810;63.824;20.288;2023-05-29T03:46:03;2.20;;;0.60;;
13475;SDS011;6810;63.824;20.288;2023-05-29T03:48:52;2.30;;;0.50;;
13475;SDS011;6810;63.824;20.288;2023-05-29T03:51:41;2.37;;;0.40;;
13475;SDS011;6810;63.824;20.288;2023-05-29T03:54:28;1.23;;;0.40;;
13475;SDS011;6810;63.824;20.288;2023-05-29T03:57:16;2.83;;;0.50;;
13475;SDS011;6810;63.824;20.288;2023-05-29T04:00:03;1.90;;;0.50;;
13475;SDS011;6810;63.824;20.288;2023-05-29T04:02:51;1.50;;;0.50;;
13475;SDS011;6810;63.824;20.288;2023-05-29T04:05:39;1.97;;;0.60;;
13475;SDS011;6810;63.824;20.288;2023-05-29T04:08:26;1.87;;;0.60;;
13475;SDS011;6810;63.824;20.288;2023-05-29T04:11:14;1.30;;;0.40;;
13475;SDS011;6810;63.824;20.288;2023-05-29T04:14:01;2.10;;;0.60;;
13475;SDS011;6810;63.824;20.288;2023-05-29T04:16:48;2.03;;;0.50;;
13475;SDS011;6810;63.824;20.288;2023-05-29T04:19:36;2.00;;;0.50;;
13475;SDS011;6810;63.824;20.288;2023-05-29T04:22:23;2.17;;;0.40;;
13475;SDS011;6810;63.824;20.288;2023-05-29T04:25:10;3.70;;;0.50;;
13475;SDS011;6810;63.824;20.288;2023-05-29T04:27:57;2.00;;;0.40;;
13475;SDS011;6810;63.824;20.288;2023-05-29T04:30:45;0.87;;;0.40;;
13475;SDS011;6810;63.824;20.288;2023-05-29T04:33:33;2.33;;;0.60;;
13475;SDS011;6810;63.824;20.288;2023-05-29T04:36:23;1.23;;;0.40;;
13475;SDS011;6810;63.824;20.288;2023-05-29T04:39:12;2.03;;;0.50;;
13475;SDS011;6810;63.824;20.288;2023-05-29T04:42:00;1.10;;;0.50;;
13475;SDS011;6810;63.824;20.288;2023-05-29T04:44:47;0.87;;;0.37;;
13475;SDS011;6810;63.824;20.288;2023-05-29T04:47:36;2.43;;;0.60;;
13475;SDS011;6810;63.824;20.288;2023-05-29T04:50:23;3.20;;;0.50;;
13475;SDS011;6810;63.824;20.288;2023-05-29T04:53:10;1.27;;;0.47;;
13475;SDS011;6810;63.824;20.288;2023-05-29T04:55:58;3.87;;;0.70;;
13475;SDS011;6810;63.824;20.288;2023-05-29T04:58:46;2.57;;;0.60;;
13475;SDS011;6810;63.824;20.288;2023-05-29T05:01:34;2.53;;;0.70;;
13475;SDS011;6810;63.824;20.288;2023-05-29T05:04:21;3.77;;;0.60;;
13475;SDS011;6810;63.824;20.288;2023-05-29T05:07:10;2.50;;;0.60;;
13475;SDS011;6810;63.824;20.288;2023-05-29T05:09:57;3.00;;;0.67;;
13475;SDS011;6810;63.824;20.288;2023-05-29T05:12:45;3.30;;;0.90;;
13475;SDS011;6810;63.824;20.288;2023-05-29T05:15:32;2.00;;;0.80;;
13475;SDS011;6810;63.824;20.288;2023-05-29T05:18:19;0.87;;;0.40;;
13475;SDS011;6810;63.824;20.288;2023-05-29T05:21:07;3.37;;;0.70;;
13475;SDS011;6810;63.824;20.288;2023-05-29T05:23:55;3.53;;;0.63;;
13475;SDS011;6810;63.824;20.288;2023-05-29T05:26:43;2.27;;;0.50;;
13475;SDS011;6810;63.824;20.288;2023-05-29T05:29:30;2.97;;;0.70;;
13475;SDS011;6810;63.824;20.288;2023-05-29T05:32:17;2.23;;;0.40;;
13475;SDS011;6810;63.824;20.288;2023-05-29T05:35:06;4.13;;;1.10;;
13475;SDS011;6810;63.824;20.288;2023-05-29T05:37:53;3.97;;;0.67;;
13475;SDS011;6810;63.824;20.288;2023-05-29T05:40:41;1.17;;;0.40;;
13475;SDS011;6810;63.824;20.288;2023-05-29T05:43:31;2.67;;;0.57;;
13475;SDS011;6810;63.824;20.288;2023-05-29T05:46:38;1.03;;;0.40;;
13475;SDS011;6810;63.824;20.288;2023-05-29T05:49:26;3.00;;;0.50;;
13475;SDS011;6810;63.824;20.288;2023-05-29T05:52:13;1.77;;;0.27;;
13475;SDS011;6810;63.824;20.288;2023-05-29T05:55:00;3.60;;;1.23;;
13475;SDS011;6810;63.824;20.288;2023-05-29T05:57:47;2.10;;;0.53;;
13475;SDS011;6810;63.824;20.288;2023-05-29T06:00:35;1.53;;;0.30;;
13475;SDS011;6810;63.824;20.288;2023-05-29T06:03:23;3.13;;;0.50;;
13475;SDS011;6810;63.824;20.288;2023-05-29T06:06:10;1.40;;;0.30;;
13475;SDS011;6810;63.824;20.288;2023-05-29T06:08:57;1.20;;;0.27;;
13475;SDS011;6810;63.824;20.288;2023-05-29T06:11:48;0.87;;;0.33;;
13475;SDS011;6810;63.824;20.288;2023-05-29T06:14:42;1.10;;;0.30;;
13475;SDS011;6810;63.824;20.288;2023-05-29T06:17:29;0.80;;;0.30;;
13475;SDS011;6810;63.824;20.288;2023-05-29T06:20:16;1.83;;;0.30;;
13475;SDS011;6810;63.824;20.288;2023-05-29T06:23:04;2.50;;;0.57;;
13475;SDS011;6810;63.824;20.288;2023-05-29T06:25:51;2.00;;;0.43;;
13475;SDS011;6810;63.824;20.288;2023-05-29T06:28:39;1.50;;;0.47;;
13475;SDS011;6810;63.824;20.288;2023-05-29T06:31:26;0.80;;;0.43;;
13475;SDS011;6810;63.824;20.288;2023-05-29T06:34:13;2.30;;;0.47;;
13475;SDS011;6810;63.824;20.288;2023-05-29T06:37:01;2.63;;;0.40;;
13475;SDS011;6810;63.824;20.288;2023-05-29T06:39:48;0.57;;;0.30;;
13475;SDS011;6810;63.824;20.288;2023-05-29T06:42:35;2.07;;;0.50;;
13475;SDS011;6810;63.824;20.288;2023-05-29T06:45:36;2.60;;;0.80;;
13475;SDS011;6810;63.824;20.288;2023-05-29T06:48:23;3.30;;;0.50;;
13475;SDS011;6810;63.824;20.288;2023-05-29T06:51:11;1.60;;;0.53;;
13475;SDS011;6810;63.824;20.288;2023-05-29T06:54:37;1.47;;;0.40;;
13475;SDS011;6810;63.824;20.288;2023-05-29T06:57:24;2.30;;;0.40;;
13475;SDS011;6810;63.824;20.288;2023-05-29T07:00:12;1.97;;;0.50;;
13475;SDS011;6810;63.824;20.288;2023-05-29T07:03:19;0.47;;;0.40;;
13475;SDS011;6810;63.824;20.288;2023-05-29T07:06:07;1.27;;;0.40;;
13475;SDS011;6810;63.824;20.288;2023-05-29T07:09:11;2.23;;;0.40;;
13475;SDS011;6810;63.824;20.288;2023-05-29T07:11:59;1.10;;;0.37;;
13475;SDS011;6810;63.824;20.288;2023-05-29T07:14:46;0.80;;;0.50;;
13475;SDS011;6810;63.824;20.288;2023-05-29T07:17:33;1.07;;;0.50;;
13475;SDS011;6810;63.824;20.288;2023-05-29T07:20:24;3.37;;;0.40;;
13475;SDS011;6810;63.824;20.288;2023-05-29T07:23:15;1.67;;;0.40;;
13475;SDS011;6810;63.824;20.288;2023-05-29T07:26:02;2.57;;;0.47;;
13475;SDS011;6810;63.824;20.288;2023-05-29T07:28:49;1.67;;;0.43;;
13475;SDS011;6810;63.824;20.288;2023-05-29T07:31:36;1.97;;;0.47;;
13475;SDS011;6810;63.824;20.288;2023-05-29T07:34:24;1.67;;;0.67;;
13475;SDS011;6810;63.824;20.288;2023-05-29T07:37:14;1.97;;;0.40;;
13475;SDS011;6810;63.824;20.288;2023-05-29T07:40:02;0.93;;;0.37;;
13475;SDS011;6810;63.824;20.288;2023-05-29T07:43:11;1.97;;;0.50;;
13475;SDS011;6810;63.824;20.288;2023-05-29T07:46:02;0.97;;;0.40;;
13475;SDS011;6810;63.824;20.288;2023-05-29T07:48:56;3.17;;;0.53;;
13475;SDS011;6810;63.824;20.288;2023-05-29T07:51:43;1.60;;;0.40;;
13475;SDS011;6810;63.824;20.288;2023-05-29T07:54:31;1.47;;;0.30;;
13475;SDS011;6810;63.824;20.288;2023-05-29T07:57:19;3.00;;;0.30;;
13475;SDS011;6810;63.824;20.288;2023-05-29T08:00:07;2.57;;;0.50;;
13475;SDS011;6810;63.824;20.288;2023-05-29T08:02:55;1.33;;;0.50;;
13475;SDS011;6810;63.824;20.288;2023-05-29T08:06:01;2.87;;;0.50;;
13475;SDS011;6810;63.824;20.288;2023-05-29T08:08:49;1.30;;;0.37;;
13475;SDS011;6810;63.824;20.288;2023-05-29T08:11:37;1.03;;;0.40;;
13475;SDS011;6810;63.824;20.288;2023-05-29T08:14:27;2.37;;;0.50;;
13475;SDS011;6810;63.824;20.288;2023-05-29T08:17:14;1.03;;;0.27;;
13475;SDS011;6810;63.824;20.288;2023-05-29T08:20:01;0.40;;;0.40;;
13475;SDS011;6810;63.824;20.288;2023-05-29T08:22:49;1.60;;;0.60;;
13475;SDS011;6810;63.824;20.288;2023-05-29T08:25:36;1.23;;;0.57;;
13475;SDS011;6810;63.824;20.288;2023-05-29T08:28:23;1.03;;;0.60;;
13475;SDS011;6810;63.824;20.288;2023-05-29T08:31:10;1.80;;;0.60;;
13475;SDS011;6810;63.824;20.288;2023-05-29T08:33:57;1.57;;;0.57;;
13475;SDS011;6810;63.824;20.288;2023-05-29T08:36:45;1.80;;;0.63;;
13475;SDS011;6810;63.824;20.288;2023-05-29T08:39:32;1.00;;;0.57;;
13475;SDS011;6810;63.824;20.288;2023-05-29T08:42:26;1.20;;;0.47;;
13475;SDS011;6810;63.824;20.288;2023-05-29T08:45:19;1.50;;;0.40;;
13475;SDS011;6810;63.824;20.288;2023-05-29T08:48:09;1.80;;;0.60;;
13475;SDS011;6810;63.824;20.288;2023-05-29T08:50:58;2.27;;;0.50;;
13475;SDS011;6810;63.824;20.288;2023-05-29T08:53:47;2.17;;;0.77;;
13475;SDS011;6810;63.824;20.288;2023-05-29T08:56:34;3.57;;;1.00;;
13475;SDS011;6810;63.824;20.288;2023-05-29T08:59:22;1.40;;;0.60;;
13475;SDS011;6810;63.824;20.288;2023-05-29T09:02:09;1.63;;;0.60;;
13475;SDS011;6810;63.824;20.288;2023-05-29T09:04:57;2.13;;;0.67;;
13475;SDS011;6810;63.824;20.288;2023-05-29T09:07:44;3.47;;;0.63;;
13475;SDS011;6810;63.824;20.288;2023-05-29T09:10:31;1.67;;;0.60;;
13475;SDS011;6810;63.824;20.288;2023-05-29T09:13:18;4.73;;;0.63;;
13475;SDS011;6810;63.824;20.288;2023-05-29T09:16:06;3.83;;;1.00;;
13475;SDS011;6810;63.824;20.288;2023-05-29T09:19:03;3.03;;;1.20;;
13475;SDS011;6810;63.824;20.288;2023-05-29T09:21:51;2.03;;;0.53;;
13475;SDS011;6810;63.824;20.288;2023-05-29T09:24:46;3.60;;;1.27;;
13475;SDS011;6810;63.824;20.288;2023-05-29T09:27:38;1.00;;;0.50;;
13475;SDS011;6810;63.824;20.288;2023-05-29T09:30:39;1.90;;;0.60;;
13475;SDS011;6810;63.824;20.288;2023-05-29T09:33:46;1.00;;;0.43;;
13475;SDS011;6810;63.824;20.288;2023-05-29T09:36:34;0.60;;;0.50;;
13475;SDS011;6810;63.824;20.288;2023-05-29T09:39:21;2.83;;;0.73;;
13475;SDS011;6810;63.824;20.288;2023-05-29T09:42:11;0.80;;;0.40;;
13475;SDS011;6810;63.824;20.288;2023-05-29T09:44:59;2.00;;;0.77;;
13475;SDS011;6810;63.824;20.288;2023-05-29T09:47:46;4.13;;;0.60;;
13475;SDS011;6810;63.824;20.288;2023-05-29T09:50:34;2.30;;;0.87;;
13475;SDS011;6810;63.824;20.288;2023-05-29T09:53:22;3.10;;;0.83;;
13475;SDS011;6810;63.824;20.288;2023-05-29T09:56:11;2.70;;;0.80;;
13475;SDS011;6810;63.824;20.288;2023-05-29T09:58:59;3.20;;;0.90;;
13475;SDS011;6810;63.824;20.288;2023-05-29T10:01:47;1.73;;;0.70;;
13475;SDS011;6810;63.824;20.288;2023-05-29T10:04:35;1.47;;;0.40;;
13475;SDS011;6810;63.824;20.288;2023-05-29T10:07:29;2.00;;;0.90;;
13475;SDS011;6810;63.824;20.288;2023-05-29T10:10:20;2.00;;;0.97;;
13475;SDS011;6810;63.824;20.288;2023-05-29T10:13:13;4.07;;;0.80;;
13475;SDS011;6810;63.824;20.288;2023-05-29T10:16:01;2.53;;;0.70;;
13475;SDS011;6810;63.824;20.288;2023-05-29T10:18:53;1.47;;;0.67;;
13475;SDS011;6810;63.824;20.288;2023-05-29T10:21:42;2.30;;;1.20;;
13475;SDS011;6810;63.824;20.288;2023-05-29T10:24:30;2.33;;;1.00;;
13475;SDS011;6810;63.824;20.288;2023-05-29T10:27:19;4.53;;;1.17;;
13475;SDS011;6810;63.824;20.288;2023-05-29T10:30:15;2.07;;;0.90;;
13475;SDS011;6810;63.824;20.288;2023-05-29T10:36:09;2.80;;;1.00;;
13475;SDS011;6810;63.824;20.288;2023-05-29T10:39:00;3.37;;;0.70;;
13475;SDS011;6810;63.824;20.288;2023-05-29T10:41:48;2.43;;;1.03;;
13475;SDS011;6810;63.824;20.288;2023-05-29T10:44:39;1.90;;;0.80;;
13475;SDS011;6810;63.824;20.288;2023-05-29T10:47:27;2.33;;;0.70;;
13475;SDS011;6810;63.824;20.288;2023-05-29T10:50:14;5.73;;;1.03;;
13475;SDS011;6810;63.824;20.288;2023-05-29T10:53:30;1.77;;;0.80;;
13475;SDS011;6810;63.824;20.288;2023-05-29T10:56:29;3.03;;;0.90;;
13475;SDS011;6810;63.824;20.288;2023-05-29T10:59:16;1.03;;;0.80;;
13475;SDS011;6810;63.824;20.288;2023-05-29T11:02:04;1.70;;;0.77;;
13475;SDS011;6810;63.824;20.288;2023-05-29T11:07:58;2.27;;;0.70;;
13475;SDS011;6810;63.824;20.288;2023-05-29T11:13:35;2.87;;;0.80;;
13475;SDS011;6810;63.824;20.288;2023-05-29T11:16:44;1.03;;;0.73;;
13475;SDS011;6810;63.824;20.288;2023-05-29T11:19:30;2.13;;;1.00;;
13475;SDS011;6810;63.824;20.288;2023-05-29T11:22:18;1.13;;;0.83;;
13475;SDS011;6810;63.824;20.288;2023-05-29T11:25:10;2.40;;;0.73;;
13475;SDS011;6810;63.824;20.288;2023-05-29T11:28:00;3.93;;;1.13;;
13475;SDS011;6810;63.824;20.288;2023-05-29T11:30:47;2.90;;;0.90;;
13475;SDS011;6810;63.824;20.288;2023-05-29T11:33:47;2.60;;;1.10;;
13475;SDS011;6810;63.824;20.288;2023-05-29T11:36:36;2.77;;;0.80;;
13475;SDS011;6810;63.824;20.288;2023-05-29T11:39:24;3.07;;;0.90;;
13475;SDS011;6810;63.824;20.288;2023-05-29T11:42:11;3.53;;;1.03;;
13475;SDS011;6810;63.824;20.288;2023-05-29T11:45:12;2.13;;;0.77;;
13475;SDS011;6810;63.824;20.288;2023-05-29T11:48:01;4.03;;;1.00;;
13475;SDS011;6810;63.824;20.288;2023-05-29T11:50:49;2.43;;;1.00;;
13475;SDS011;6810;63.824;20.288;2023-05-29T11:53:39;2.03;;;0.80;;
13475;SDS011;6810;63.824;20.288;2023-05-29T11:56:27;1.60;;;0.60;;
13475;SDS011;6810;63.824;20.288;2023-05-29T11:59:17;2.13;;;0.87;;
13475;SDS011;6810;63.824;20.288;2023-05-29T12:02:04;3.03;;;0.60;;
13475;SDS011;6810;63.824;20.288;2023-05-29T12:05:04;2.77;;;1.00;;
13475;SDS011;6810;63.824;20.288;2023-05-29T12:07:53;2.10;;;1.00;;
13475;SDS011;6810;63.824;20.288;2023-05-29T12:10:47;2.27;;;0.80;;
13475;SDS011;6810;63.824;20.288;2023-05-29T12:13:35;4.03;;;1.10;;
13475;SDS011;6810;63.824;20.288;2023-05-29T12:16:23;1.50;;;0.80;;
13475;SDS011;6810;63.824;20.288;2023-05-29T12:19:12;1.30;;;0.70;;
13475;SDS011;6810;63.824;20.288;2023-05-29T12:21:59;2.03;;;0.70;;
13475;SDS011;6810;63.824;20.288;2023-05-29T12:24:47;1.53;;;0.60;;
13475;SDS011;6810;63.824;20.288;2023-05-29T12:27:34;4.30;;;0.80;;
13475;SDS011;6810;63.824;20.288;2023-05-29T12:30:22;3.53;;;1.00;;
13475;SDS011;6810;63.824;20.288;2023-05-29T12:33:09;1.10;;;0.60;;
13475;SDS011;6810;63.824;20.288;2023-05-29T12:36:11;1.77;;;0.80;;
13475;SDS011;6810;63.824;20.288;2023-05-29T12:38:59;2.60;;;1.10;;
13475;SDS011;6810;63.824;20.288;2023-05-29T12:41:46;2.27;;;0.70;;
13475;SDS011;6810;63.824;20.288;2023-05-29T12:44:33;1.43;;;0.60;;
13475;SDS011;6810;63.824;20.288;2023-05-29T12:47:23;1.40;;;0.80;;
13475;SDS011;6810;63.824;20.288;2023-05-29T12:50:29;4.77;;;1.03;;
13475;SDS011;6810;63.824;20.288;2023-05-29T12:53:17;2.73;;;0.80;;
13475;SDS011;6810;63.824;20.288;2023-05-29T12:56:04;2.10;;;0.70;;
13475;SDS011;6810;63.824;20.288;2023-05-29T12:58:51;2.40;;;1.00;;
13475;SDS011;6810;63.824;20.288;2023-05-29T13:01:38;0.97;;;0.57;;
13475;SDS011;6810;63.824;20.288;2023-05-29T13:04:26;2.93;;;0.70;;
13475;SDS011;6810;63.824;20.288;2023-05-29T13:07:13;2.53;;;0.80;;
13475;SDS011;6810;63.824;20.288;2023-05-29T13:10:01;3.80;;;0.83;;
13475;SDS011;6810;63.824;20.288;2023-05-29T13:12:51;1.97;;;0.80;;
13475;SDS011;6810;63.824;20.288;2023-05-29T13:15:39;1.57;;;0.57;;
13475;SDS011;6810;63.824;20.288;2023-05-29T13:18:26;1.53;;;0.70;;
13475;SDS011;6810;63.824;20.288;2023-05-29T13:21:13;1.10;;;0.70;;
13475;SDS011;6810;63.824;20.288;2023-05-29T13:24:00;3.13;;;0.70;;
13475;SDS011;6810;63.824;20.288;2023-05-29T13:26:48;3.27;;;0.97;;
13475;SDS011;6810;63.824;20.288;2023-05-29T13:29:35;0.60;;;0.40;;
13475;SDS011;6810;63.824;20.288;2023-05-29T13:32:22;2.00;;;0.70;;
13475;SDS011;6810;63.824;20.288;2023-05-29T13:35:09;1.23;;;0.43;;
13475;SDS011;6810;63.824;20.288;2023-05-29T13:37:57;1.23;;;0.60;;
13475;SDS011;6810;63.824;20.288;2023-05-29T13:40:44;1.10;;;0.50;;
13475;SDS011;6810;63.824;20.288;2023-05-29T13:43:32;1.20;;;0.50;;
13475;SDS011;6810;63.824;20.288;2023-05-29T13:46:19;1.07;;;0.57;;
13475;SDS011;6810;63.824;20.288;2023-05-29T13:49:06;1.50;;;0.70;;
13475;SDS011;6810;63.824;20.288;2023-05-29T13:51:53;1.97;;;0.40;;
13475;SDS011;6810;63.824;20.288;2023-05-29T13:54:41;1.77;;;0.40;;
13475;SDS011;6810;63.824;20.288;2023-05-29T13:57:28;1.57;;;0.57;;
13475;SDS011;6810;63.824;20.288;2023-05-29T14:00:15;1.80;;;0.60;;
13475;SDS011;6810;63.824;20.288;2023-05-29T14:03:02;0.70;;;0.50;;
13475;SDS011;6810;63.824;20.288;2023-05-29T14:05:50;1.80;;;0.50;;
13475;SDS011;6810;63.824;20.288;2023-05-29T14:08:37;1.30;;;0.50;;
13475;SDS011;6810;63.824;20.288;2023-05-29T14:11:24;1.50;;;0.40;;
13475;SDS011;6810;63.824;20.288;2023-05-29T14:14:11;1.33;;;0.40;;
13475;SDS011;6810;63.824;20.288;2023-05-29T14:16:59;3.33;;;0.60;;
13475;SDS011;6810;63.824;20.288;2023-05-29T14:19:46;0.77;;;0.40;;
13475;SDS011;6810;63.824;20.288;2023-05-29T14:22:34;2.03;;;0.47;;
13475;SDS011;6810;63.824;20.288;2023-05-29T14:25:21;0.33;;;0.30;;
13475;SDS011;6810;63.824;20.288;2023-05-29T14:28:08;0.63;;;0.30;;
13475;SDS011;6810;63.824;20.288;2023-05-29T14:30:56;0.33;;;0.30;;
13475;SDS011;6810;63.824;20.288;2023-05-29T14:33:43;0.50;;;0.43;;
13475;SDS011;6810;63.824;20.288;2023-05-29T14:36:30;1.60;;;0.37;;
13475;SDS011;6810;63.824;20.288;2023-05-29T14:39:19;0.63;;;0.40;;
13475;SDS011;6810;63.824;20.288;2023-05-29T14:42:06;0.33;;;0.30;;
13475;SDS011;6810;63.824;20.288;2023-05-29T14:44:54;1.83;;;0.60;;
13475;SDS011;6810;63.824;20.288;2023-05-29T14:47:41;0.80;;;0.30;;
13475;SDS011;6810;63.824;20.288;2023-05-29T14:50:28;0.50;;;0.30;;
13475;SDS011;6810;63.824;20.288;2023-05-29T14:53:15;2.40;;;0.60;;
13475;SDS011;6810;63.824;20.288;2023-05-29T14:56:03;1.80;;;0.50;;
13475;SDS011;6810;63.824;20.288;2023-05-29T14:58:50;0.73;;;0.60;;
13475;SDS011;6810;63.824;20.288;2023-05-29T15:01:37;4.33;;;0.70;;
13475;SDS011;6810;63.824;20.288;2023-05-29T15:04:27;0.73;;;0.50;;
13475;SDS011;6810;63.824;20.288;2023-05-29T15:07:15;2.27;;;0.50;;
13475;SDS011;6810;63.824;20.288;2023-05-29T15:10:03;0.70;;;0.30;;
13475;SDS011;6810;63.824;20.288;2023-05-29T15:12:51;1.47;;;0.50;;
13475;SDS011;6810;63.824;20.288;2023-05-29T15:15:39;1.53;;;0.60;;
13475;SDS011;6810;63.824;20.288;2023-05-29T15:18:26;0.90;;;0.50;;
13475;SDS011;6810;63.824;20.288;2023-05-29T15:21:13;1.53;;;0.70;;
13475;SDS011;6810;63.824;20.288;2023-05-29T15:24:00;0.90;;;0.50;;
13475;SDS011;6810;63.824;20.288;2023-05-29T15:26:48;0.97;;;0.40;;
13475;SDS011;6810;63.824;20.288;2023-05-29T15:29:35;1.50;;;0.50;;
13475;SDS011;6810;63.824;20.288;2023-05-29T15:32:22;0.50;;;0.23;;
13475;SDS011;6810;63.824;20.288;2023-05-29T15:35:10;0.30;;;0.30;;
13475;SDS011;6810;63.824;20.288;2023-05-29T15:37:58;1.13;;;0.40;;
13475;SDS011;6810;63.824;20.288;2023-05-29T15:40:45;1.60;;;0.50;;
13475;SDS011;6810;63.824;20.288;2023-05-29T15:43:33;2.67;;;0.40;;
13475;SDS011;6810;63.824;20.288;2023-05-29T15:46:20;2.27;;;0.60;;
13475;SDS011;6810;63.824;20.288;2023-05-29T15:49:08;0.83;;;0.50;;
13475;SDS011;6810;63.824;20.288;2023-05-29T15:51:55;3.10;;;0.60;;
13475;SDS011;6810;63.824;20.288;2023-05-29T15:54:42;1.80;;;0.43;;
13475;SDS011;6810;63.824;20.288;2023-05-29T15:57:29;1.53;;;0.60;;
13475;SDS011;6810;63.824;20.288;2023-05-29T16:00:17;1.30;;;0.50;;
13475;SDS011;6810;63.824;20.288;2023-05-29T16:03:04;1.17;;;0.40;;
13475;SDS011;6810;63.824;20.288;2023-05-29T16:05:51;1.23;;;0.50;;
13475;SDS011;6810;63.824;20.288;2023-05-29T16:08:38;1.43;;;0.50;;
13475;SDS011;6810;63.824;20.288;2023-05-29T16:11:26;1.67;;;0.70;;
13475;SDS011;6810;63.824;20.288;2023-05-29T16:14:13;2.40;;;0.40;;
13475;SDS011;6810;63.824;20.288;2023-05-29T16:17:00;1.90;;;0.70;;
13475;SDS011;6810;63.824;20.288;2023-05-29T16:19:47;2.30;;;1.00;;
13475;SDS011;6810;63.824;20.288;2023-05-29T16:22:34;2.57;;;0.70;;
13475;SDS011;6810;63.824;20.288;2023-05-29T16:25:22;0.93;;;0.60;;
13475;SDS011;6810;63.824;20.288;2023-05-29T16:28:09;2.20;;;0.70;;
13475;SDS011;6810;63.824;20.288;2023-05-29T16:30:56;2.80;;;0.70;;
13475;SDS011;6810;63.824;20.288;2023-05-29T16:33:43;1.53;;;0.60;;
13475;SDS011;6810;63.824;20.288;2023-05-29T16:36:31;2.43;;;0.50;;
13475;SDS011;6810;63.824;20.288;2023-05-29T16:39:18;1.67;;;0.70;;
13475;SDS011;6810;63.824;20.288;2023-05-29T16:42:05;2.23;;;0.60;;
13475;SDS011;6810;63.824;20.288;2023-05-29T16:44:53;3.53;;;0.70;;
13475;SDS011;6810;63.824;20.288;2023-05-29T16:47:40;1.47;;;0.60;;
13475;SDS011;6810;63.824;20.288;2023-05-29T16:50:27;1.47;;;0.60;;
13475;SDS011;6810;63.824;20.288;2023-05-29T16:53:14;1.23;;;0.40;;
13475;SDS011;6810;63.824;20.288;2023-05-29T16:56:02;1.40;;;0.57;;
13475;SDS011;6810;63.824;20.288;2023-05-29T16:58:49;3.00;;;0.50;;
13475;SDS011;6810;63.824;20.288;2023-05-29T17:01:37;2.23;;;0.53;;
13475;SDS011;6810;63.824;20.288;2023-05-29T17:04:24;1.50;;;0.50;;
13475;SDS011;6810;63.824;20.288;2023-05-29T17:07:11;2.93;;;0.60;;
13475;SDS011;6810;63.824;20.288;2023-05-29T17:09:58;0.43;;;0.30;;
13475;SDS011;6810;63.824;20.288;2023-05-29T17:12:46;2.20;;;0.60;;
13475;SDS011;6810;63.824;20.288;2023-05-29T17:15:33;2.07;;;0.43;;
13475;SDS011;6810;63.824;20.288;2023-05-29T17:18:20;0.50;;;0.30;;